createdAt,value
2022-12-17T00:03:23.680Z,66.50
2022-12-17T00:09:04.291Z,83.00
2022-12-17T00:14:44.540Z,69.97
2022-12-17T00:20:24.302Z,67.40
2022-12-17T00:26:04.310Z,70.43
2022-12-17T00:31:44.569Z,63.70
2022-12-17T00:37:24.515Z,70.17
2022-12-17T00:43:04.427Z,61.13
2022-12-17T00:48:44.325Z,64.70
2022-12-17T00:54:24.792Z,64.43
2022-12-17T01:00:05.197Z,67.23
2022-12-17T01:05:45.610Z,70.00
2022-12-17T01:11:32.708Z,68.33
2022-12-17T01:17:12.679Z,54.43
2022-12-17T01:22:53.258Z,53.60
2022-12-17T01:28:35.501Z,47.07
2022-12-17T01:34:15.536Z,46.63
2022-12-17T01:39:55.573Z,44.67
2022-12-17T01:45:37.822Z,46.10
2022-12-17T01:51:23.814Z,44.17
2022-12-17T01:57:06.916Z,44.97
2022-12-17T02:02:46.844Z,45.83
2022-12-17T02:08:37.943Z,42.93
2022-12-17T02:14:25.696Z,50.03
2022-12-17T02:20:28.237Z,50.77
2022-12-17T02:26:16.003Z,46.73
2022-12-17T02:31:58.588Z,51.80
2022-12-17T02:37:39.238Z,50.03
2022-12-17T02:43:20.886Z,49.23
2022-12-17T02:49:02.354Z,54.60
2022-12-17T02:54:42.707Z,48.97
2022-12-17T03:00:22.524Z,44.47
2022-12-17T03:06:02.525Z,44.97
2022-12-17T03:11:42.574Z,46.13
2022-12-17T03:17:23.035Z,46.40
2022-12-17T03:23:02.784Z,46.30
2022-12-17T03:28:44.357Z,46.73
2022-12-17T03:34:24.234Z,42.37
2022-12-17T03:40:04.481Z,38.47
2022-12-17T03:45:45.122Z,38.73
2022-12-17T03:51:26.454Z,36.17
2022-12-17T03:57:09.585Z,39.83
2022-12-17T04:02:49.050Z,36.10
2022-12-17T04:08:29.500Z,38.33
2022-12-17T04:14:09.369Z,38.90
2022-12-17T04:19:49.341Z,36.53
2022-12-17T04:25:29.725Z,34.58
2022-12-17T04:31:10.696Z,36.20
2022-12-17T04:36:50.814Z,30.57
2022-12-17T04:42:31.203Z,36.13
2022-12-17T04:48:11.167Z,32.80
2022-12-17T04:53:50.827Z,31.53
2022-12-17T05:05:04.422Z,32.37
2022-12-17T05:10:44.429Z,33.43
2022-12-17T05:16:28.108Z,34.27
2022-12-17T05:22:08.283Z,32.40
2022-12-17T05:27:48.519Z,38.20
2022-12-17T05:33:34.390Z,39.07
2022-12-17T05:39:14.602Z,42.23
2022-12-17T05:44:54.367Z,39.40
2022-12-17T05:50:34.740Z,37.03
2022-12-17T05:56:17.043Z,37.95
2022-12-17T06:01:57.362Z,38.90
2022-12-17T06:07:37.523Z,37.58
2022-12-17T06:13:26.965Z,35.15
2022-12-17T06:19:07.387Z,26.50
2022-12-17T06:24:48.365Z,32.10
2022-12-17T06:30:28.443Z,36.45
2022-12-17T06:36:08.400Z,32.70
2022-12-17T06:41:48.552Z,33.80
2022-12-17T06:47:28.910Z,33.70
2022-12-17T06:53:08.756Z,32.93
2022-12-17T07:04:22.566Z,33.13
2022-12-17T07:10:02.455Z,28.75
2022-12-17T07:15:43.845Z,28.47
2022-12-17T07:21:24.928Z,30.08
2022-12-17T07:27:06.957Z,29.35
2022-12-17T07:32:46.936Z,29.80
2022-12-17T07:38:35.454Z,28.00
2022-12-17T07:44:16.929Z,32.63
2022-12-17T07:49:58.543Z,33.80
2022-12-17T07:55:40.848Z,28.27
2022-12-17T08:01:26.020Z,27.62
2022-12-17T08:07:12.252Z,27.87
2022-12-17T08:12:52.028Z,33.80
2022-12-17T08:18:34.709Z,30.15
2022-12-17T08:24:14.989Z,31.40
2022-12-17T08:29:56.938Z,31.48
2022-12-17T08:35:40.391Z,32.88
2022-12-17T08:41:25.200Z,30.80
2022-12-17T08:47:06.704Z,31.42
2022-12-17T08:52:48.655Z,28.20
2022-12-17T08:58:33.126Z,24.90
2022-12-17T09:04:15.591Z,27.90
2022-12-17T09:09:58.138Z,31.75
2022-12-17T09:15:39.002Z,36.85
2022-12-17T09:21:25.797Z,30.32
2022-12-17T09:27:08.218Z,26.75
2022-12-17T09:32:49.462Z,25.37
2022-12-17T09:38:35.091Z,28.67
2022-12-17T09:48:32.856Z,26.73
2022-12-17T09:54:22.795Z,29.87
2022-12-17T10:00:05.848Z,26.40
2022-12-17T10:05:58.842Z,26.80
2022-12-17T10:11:54.433Z,27.67
2022-12-17T10:23:33.352Z,29.17
2022-12-17T10:29:15.626Z,35.00
2022-12-17T10:35:05.308Z,28.87
2022-12-17T10:40:54.181Z,29.95
2022-12-17T10:46:37.027Z,30.03
2022-12-17T10:52:19.037Z,33.23
2022-12-17T10:58:06.171Z,31.90
2022-12-17T11:04:17.346Z,31.50
2022-12-17T11:10:19.797Z,32.23
2022-12-17T11:16:16.747Z,36.60
2022-12-17T11:22:06.717Z,35.28
2022-12-17T11:27:53.308Z,31.80
2022-12-17T11:33:47.972Z,79.73
2022-12-17T11:39:51.869Z,33.47
2022-12-17T11:45:39.804Z,34.53
2022-12-17T11:51:42.478Z,38.30
2022-12-17T11:57:33.039Z,39.65
2022-12-17T12:03:27.123Z,38.10
2022-12-17T12:09:26.677Z,36.70
2022-12-17T12:15:40.162Z,33.58
2022-12-17T12:21:36.181Z,30.45
2022-12-17T12:33:47.425Z,34.13
2022-12-17T12:39:29.338Z,39.93
2022-12-17T12:45:26.800Z,33.03
2022-12-17T12:51:17.710Z,33.43
2022-12-17T12:57:06.744Z,28.40
2022-12-17T13:02:52.016Z,36.53
2022-12-17T13:08:36.574Z,33.07
2022-12-17T13:14:01.726Z,33.27
2022-12-17T13:19:47.789Z,36.03
2022-12-17T13:25:31.071Z,39.83
2022-12-17T13:30:54.570Z,36.50
2022-12-17T13:36:42.660Z,37.88
2022-12-17T13:42:06.623Z,39.55
2022-12-17T13:47:41.541Z,38.13
2022-12-17T13:53:04.127Z,37.58
2022-12-17T13:58:39.449Z,36.03
2022-12-17T14:04:07.139Z,37.77
2022-12-17T14:09:47.177Z,46.45
2022-12-17T14:15:21.104Z,46.00
2022-12-17T14:20:46.566Z,46.40
2022-12-17T14:26:09.593Z,48.93
2022-12-17T14:31:41.231Z,51.90
2022-12-17T14:37:11.708Z,55.28
2022-12-17T14:42:37.728Z,56.30
2022-12-17T14:48:14.423Z,71.77
2022-12-17T14:53:47.689Z,69.40
2022-12-17T14:59:10.384Z,63.85
2022-12-17T15:04:34.458Z,70.83
2022-12-17T15:09:58.211Z,66.07
2022-12-17T15:15:22.348Z,66.05
2022-12-17T15:20:44.653Z,70.90
2022-12-17T15:26:08.412Z,64.85
2022-12-17T15:31:35.392Z,66.97
2022-12-17T15:36:55.367Z,61.40
2022-12-17T15:42:35.282Z,68.72
2022-12-17T15:53:14.545Z,62.83
2022-12-17T15:58:37.134Z,66.83
2022-12-17T16:04:00.758Z,70.37
2022-12-17T16:09:27.257Z,66.53
2022-12-17T16:14:49.433Z,66.30
2022-12-17T16:20:12.360Z,72.40
2022-12-17T16:25:34.918Z,76.70
2022-12-17T16:31:07.025Z,70.40
2022-12-17T16:36:34.828Z,62.60
2022-12-17T16:41:57.686Z,58.20
2022-12-17T16:47:19.891Z,61.45
2022-12-17T16:52:42.084Z,63.00
2022-12-17T16:58:04.280Z,55.73
2022-12-17T17:03:26.673Z,54.93
2022-12-17T17:08:50.554Z,55.47
2022-12-17T17:14:13.603Z,58.70
2022-12-17T17:19:36.208Z,52.37
2022-12-17T17:24:58.419Z,55.70
2022-12-17T17:30:21.795Z,58.17
2022-12-17T17:35:44.043Z,66.07
2022-12-17T17:41:08.031Z,56.83
2022-12-17T17:46:32.129Z,57.37
2022-12-17T17:52:12.546Z,56.10
2022-12-17T17:57:21.544Z,55.80
2022-12-17T18:02:44.544Z,54.70
2022-12-17T18:08:07.144Z,59.50
2022-12-17T18:13:47.074Z,58.28
2022-12-17T18:19:13.156Z,59.93
2022-12-17T18:24:37.052Z,52.43
2022-12-17T18:29:59.300Z,51.07
2022-12-17T18:35:21.921Z,55.70
2022-12-17T18:40:44.086Z,55.10
2022-12-17T18:46:08.166Z,55.10
2022-12-17T18:51:30.537Z,48.63
2022-12-17T18:57:02.577Z,56.55
2022-12-17T19:02:23.049Z,53.50
2022-12-17T19:07:47.592Z,57.95
2022-12-17T19:13:11.583Z,53.35
2022-12-17T19:18:35.380Z,53.42
2022-12-17T19:23:59.789Z,54.33
2022-12-17T19:29:24.645Z,51.80
2022-12-17T19:34:47.221Z,48.92
2022-12-17T19:40:09.825Z,55.75
2022-12-17T19:45:32.445Z,53.95
2022-12-17T19:51:03.878Z,57.23
2022-12-17T19:56:34.717Z,59.13
2022-12-17T20:02:02.081Z,54.40
2022-12-17T20:07:24.890Z,61.13
2022-12-17T20:12:47.367Z,58.70
2022-12-17T20:18:09.636Z,54.10
2022-12-17T20:23:31.912Z,58.33
2022-12-17T20:28:54.805Z,57.67
2022-12-17T20:34:23.551Z,58.23
2022-12-17T20:39:45.887Z,49.10
2022-12-17T20:45:08.690Z,57.20
2022-12-17T20:50:30.969Z,61.00
2022-12-17T20:55:53.307Z,65.97
2022-12-17T21:01:31.791Z,62.80
2022-12-17T21:06:57.552Z,60.83
2022-12-17T21:12:20.395Z,64.67
2022-12-17T21:17:42.586Z,60.58
2022-12-17T21:23:04.922Z,65.20
2022-12-17T21:28:27.688Z,71.20
2022-12-17T21:33:55.577Z,78.57
2022-12-17T21:39:32.397Z,69.27
2022-12-17T21:44:55.163Z,70.83
2022-12-17T21:50:17.771Z,74.23
2022-12-17T21:55:40.032Z,63.93
2022-12-17T22:01:06.354Z,66.37
2022-12-17T22:06:37.484Z,72.27
2022-12-17T22:11:58.883Z,71.53
2022-12-17T22:17:31.390Z,68.67
2022-12-17T22:22:53.645Z,64.80
2022-12-17T22:28:17.355Z,68.37
2022-12-17T22:34:39.360Z,67.47
2022-12-17T22:44:06.286Z,63.23
2022-12-17T22:44:51.175Z,68.00
2022-12-17T22:49:54.087Z,66.80
2022-12-17T22:55:17.774Z,59.30
2022-12-17T23:00:44.193Z,57.07
2022-12-17T23:06:16.012Z,61.30
2022-12-17T23:11:40.867Z,59.08
2022-12-17T23:17:03.275Z,70.62
2022-12-17T23:22:25.500Z,69.57
2022-12-17T23:27:49.345Z,66.05
2022-12-17T23:33:11.635Z,65.10
2022-12-17T23:38:33.857Z,75.17
2022-12-17T23:43:57.344Z,73.90
2022-12-17T23:49:21.258Z,75.27
2022-12-17T23:54:43.937Z,72.80
